Terminal Aerodrome Forecast
Issued by NWS

Home | Current Version | Previous Version | Text Only | Print | Product List | Glossary On
Versions: 1 2 3 4 5 6 7 8 9 10 11 12 13 14 15 16 17 18 19 20 21 22 23 24 25 26 27 28 29 30 31 32
451
FTUS43 KLOT 221135
TAFMDW
TAF
KMDW 221135Z 2212/2312 02007KT P6SM SKC
     FM222000 07010KT P6SM SKC
     FM230100 10006KT P6SM SKC
     FM231000 16004KT P6SM SCT100 BKN250=

USA.gov is the U.S. government's official web portal to all federal, state and local government web resources and services.